createdAt,value
2023-02-03T00:00:33.759Z,9.29
2023-02-03T00:03:39.677Z,15.95
2023-02-03T00:06:46.982Z,37.84
2023-02-03T00:09:53.168Z,41.92
2023-02-03T00:13:02.455Z,18.24
2023-02-03T00:16:09.572Z,14.17
2023-02-03T00:19:17.634Z,11.95
2023-02-03T00:22:23.783Z,10.15
2023-02-03T00:25:30.380Z,10.99
2023-02-03T00:28:39.207Z,8.28
2023-02-03T00:31:46.003Z,8.05
2023-02-03T00:34:51.965Z,8.11
2023-02-03T00:38:00.582Z,7.73
2023-02-03T00:41:06.469Z,8.40
2023-02-03T00:44:17.083Z,7.55
2023-02-03T00:47:22.870Z,7.77
2023-02-03T00:50:30.281Z,7.23
2023-02-03T00:53:36.986Z,7.41
2023-02-03T00:56:43.861Z,7.02
2023-02-03T00:59:54.449Z,6.17
2023-02-03T01:03:01.142Z,6.42
2023-02-03T01:06:17.468Z,6.89
2023-02-03T01:09:24.048Z,6.91
2023-02-03T01:12:32.478Z,7.49
2023-02-03T01:15:48.127Z,7.09
2023-02-03T01:18:55.034Z,7.98
2023-02-03T01:22:03.869Z,7.37
2023-02-03T01:25:11.675Z,7.10
2023-02-03T01:28:18.365Z,7.03
2023-02-03T01:31:30.762Z,7.73
2023-02-03T01:34:37.561Z,7.73
2023-02-03T01:37:45.075Z,6.71
2023-02-03T01:40:51.668Z,6.90
2023-02-03T01:44:00.335Z,7.24
2023-02-03T01:47:27.516Z,6.89
2023-02-03T01:50:38.976Z,7.02
2023-02-03T01:53:46.052Z,7.54
2023-02-03T01:56:59.673Z,7.43
2023-02-03T02:00:12.549Z,8.06
2023-02-03T02:03:34.281Z,8.97
2023-02-03T02:06:41.249Z,7.93
2023-02-03T02:09:52.241Z,7.67
2023-02-03T02:13:02.523Z,7.56
2023-02-03T02:16:19.949Z,7.71
2023-02-03T02:20:28.113Z,7.33
2023-02-03T02:24:29.843Z,7.87
2023-02-03T02:28:39.542Z,8.23
2023-02-03T02:32:12.837Z,7.65
2023-02-03T02:35:38.276Z,7.42
2023-02-03T02:39:05.247Z,7.47
2023-02-03T02:42:26.900Z,7.56
2023-02-03T02:45:47.253Z,6.84
2023-02-03T02:49:06.112Z,6.79
2023-02-03T02:52:18.904Z,6.97
2023-02-03T02:55:34.104Z,7.16
2023-02-03T02:58:50.340Z,7.40
2023-02-03T03:01:56.216Z,7.53
2023-02-03T03:05:15.899Z,7.53
2023-02-03T03:08:35.881Z,7.86
2023-02-03T03:11:53.915Z,8.08
2023-02-03T03:15:09.692Z,8.17
2023-02-03T03:18:26.474Z,7.77
2023-02-03T03:21:43.963Z,8.50
2023-02-03T03:25:00.865Z,8.15
2023-02-03T03:28:16.604Z,7.31
2023-02-03T03:31:24.557Z,7.60
2023-02-03T03:34:32.412Z,7.60
2023-02-03T03:37:51.979Z,6.72
2023-02-03T03:41:08.798Z,7.24
2023-02-03T03:44:21.769Z,7.90
2023-02-03T03:47:37.099Z,6.67
2023-02-03T03:50:52.715Z,7.09
2023-02-03T03:54:10.417Z,7.64
2023-02-03T03:57:25.857Z,9.21
2023-02-03T04:00:39.120Z,11.99
2023-02-03T04:03:53.189Z,11.43
2023-02-03T04:06:59.620Z,10.70
2023-02-03T04:10:24.934Z,10.17
2023-02-03T04:13:31.164Z,11.77
2023-02-03T04:16:37.741Z,12.01
2023-02-03T04:19:43.510Z,11.58
2023-02-03T04:22:50.169Z,11.91
2023-02-03T04:25:58.664Z,13.46
2023-02-03T04:29:05.799Z,14.60
2023-02-03T04:32:11.564Z,15.12
2023-02-03T04:35:18.306Z,18.32
2023-02-03T04:38:24.157Z,18.35
2023-02-03T04:41:33.470Z,18.79
2023-02-03T04:44:39.176Z,23.65
2023-02-03T04:47:45.937Z,23.50
2023-02-03T04:50:51.684Z,33.76
2023-02-03T04:53:58.454Z,22.05
2023-02-03T04:57:08.066Z,20.92
2023-02-03T05:00:17.140Z,16.86
2023-02-03T05:03:25.006Z,19.89
2023-02-03T05:06:33.480Z,29.17
2023-02-03T05:09:39.192Z,26.23
2023-02-03T05:12:48.487Z,32.81
2023-02-03T05:15:54.312Z,32.53
2023-02-03T05:19:00.946Z,35.42
2023-02-03T05:22:06.716Z,31.51
2023-02-03T05:25:13.956Z,40.81
2023-02-03T05:28:22.332Z,26.22
2023-02-03T05:31:29.093Z,24.33
2023-02-03T05:34:34.983Z,29.17
2023-02-03T05:37:41.603Z,34.12
2023-02-03T05:40:59.880Z,25.57
2023-02-03T05:44:09.189Z,20.78
2023-02-03T05:47:14.999Z,35.46
2023-02-03T05:50:23.030Z,24.36
2023-02-03T05:53:31.023Z,24.08
2023-02-03T05:56:38.908Z,21.26
2023-02-03T05:59:47.444Z,17.48
2023-02-03T06:02:59.159Z,17.66
2023-02-03T06:06:05.021Z,21.27
2023-02-03T06:09:12.757Z,14.88
2023-02-03T06:12:20.079Z,15.26
2023-02-03T06:15:29.367Z,17.92
2023-02-03T06:18:35.228Z,15.66
2023-02-03T06:21:41.871Z,16.26
2023-02-03T06:24:48.409Z,14.68
2023-02-03T06:27:55.212Z,20.39
2023-02-03T06:31:03.957Z,20.78
2023-02-03T06:34:10.704Z,17.66
2023-02-03T06:37:16.566Z,14.84
2023-02-03T06:40:23.747Z,15.48
2023-02-03T06:43:29.596Z,13.18
2023-02-03T06:46:38.845Z,19.37
2023-02-03T06:49:44.610Z,15.29
2023-02-03T06:52:53.797Z,13.37
2023-02-03T06:56:02.255Z,15.89
2023-02-03T06:59:09.235Z,16.74
2023-02-03T07:02:17.728Z,20.67
2023-02-03T07:05:24.884Z,17.37
2023-02-03T07:08:30.706Z,18.07
2023-02-03T07:11:37.296Z,17.36
2023-02-03T07:14:43.115Z,32.47
2023-02-03T07:17:55.046Z,43.49
2023-02-03T07:21:00.999Z,26.96
2023-02-03T07:24:08.447Z,31.57
2023-02-03T07:27:14.209Z,21.55
2023-02-03T07:30:21.132Z,11.55
2023-02-03T07:33:29.717Z,22.30
2023-02-03T07:36:36.634Z,15.24
2023-02-03T07:39:44.335Z,12.49
2023-02-03T07:42:53.022Z,13.55
2023-02-03T07:45:58.914Z,14.51
2023-02-03T07:49:08.085Z,15.70
2023-02-03T07:52:13.846Z,15.14
2023-02-03T07:55:20.829Z,18.97
2023-02-03T07:58:26.555Z,15.10
2023-02-03T08:01:34.300Z,14.83
2023-02-03T08:04:42.812Z,14.01
2023-02-03T08:07:49.822Z,14.77
2023-02-03T08:10:57.793Z,14.51
2023-02-03T08:14:04.333Z,15.89
2023-02-03T08:17:10.095Z,14.93
2023-02-03T08:20:20.178Z,14.74
2023-02-03T08:23:25.971Z,14.84
2023-02-03T08:26:32.613Z,15.53
2023-02-03T08:29:38.453Z,16.45
2023-02-03T08:32:45.053Z,16.37
2023-02-03T08:35:54.232Z,14.95
2023-02-03T08:39:01.022Z,15.30
2023-02-03T08:42:07.978Z,16.62
2023-02-03T08:45:15.053Z,17.50
2023-02-03T08:48:20.810Z,17.50
2023-02-03T08:51:30.389Z,18.44
2023-02-03T08:54:36.912Z,18.74
2023-02-03T08:57:44.915Z,17.43
2023-02-03T09:00:53.369Z,16.86
2023-02-03T09:04:02.170Z,15.69
2023-02-03T09:07:11.262Z,15.52
2023-02-03T09:10:17.956Z,16.87
2023-02-03T09:13:23.910Z,30.93
2023-02-03T09:16:31.248Z,25.12
2023-02-03T09:19:37.369Z,23.32
2023-02-03T09:22:46.753Z,20.11
2023-02-03T09:25:52.791Z,22.04
2023-02-03T09:28:59.611Z,26.36
2023-02-03T09:32:09.107Z,24.06
2023-02-03T09:35:15.945Z,26.50
2023-02-03T09:38:24.724Z,30.05
2023-02-03T09:42:29.103Z,28.89
2023-02-03T09:45:36.111Z,23.06
2023-02-03T09:48:53.038Z,24.54
2023-02-03T09:52:10.863Z,29.43
2023-02-03T09:55:36.748Z,22.72
2023-02-03T09:58:42.719Z,25.96
2023-02-03T10:02:03.181Z,33.87
2023-02-03T10:05:28.779Z,34.40
2023-02-03T10:09:12.526Z,19.27
2023-02-03T10:13:03.220Z,22.18
2023-02-03T10:16:51.901Z,24.00
2023-02-03T10:20:08.747Z,25.34
2023-02-03T10:23:24.162Z,25.84
2023-02-03T10:26:33.345Z,28.87
2023-02-03T10:29:46.431Z,19.50
2023-02-03T10:32:57.160Z,24.02
2023-02-03T10:36:21.276Z,24.81
2023-02-03T10:39:39.678Z,21.09
2023-02-03T10:43:02.856Z,24.42
2023-02-03T10:46:11.504Z,26.16
2023-02-03T10:49:19.737Z,25.46
2023-02-03T10:52:34.202Z,22.57
2023-02-03T10:55:40.940Z,25.28
2023-02-03T10:58:53.951Z,22.92
2023-02-03T11:02:03.569Z,20.26
2023-02-03T11:05:25.122Z,20.07
2023-02-03T11:08:35.121Z,22.51
2023-02-03T11:11:42.116Z,18.22
2023-02-03T11:14:52.576Z,21.76
2023-02-03T11:18:00.977Z,18.53
2023-02-03T11:21:16.393Z,40.31
2023-02-03T11:24:27.316Z,25.99
2023-02-03T11:27:36.868Z,48.62
2023-02-03T11:30:42.896Z,61.01
2023-02-03T11:34:01.652Z,39.25
2023-02-03T11:37:35.203Z,26.37
2023-02-03T11:40:41.885Z,51.32
2023-02-03T11:43:48.834Z,60.86
2023-02-03T11:47:03.366Z,55.19
2023-02-03T11:50:33.587Z,23.06
2023-02-03T11:54:02.287Z,20.14
2023-02-03T11:57:38.289Z,15.98
2023-02-03T12:00:59.938Z,16.95
2023-02-03T12:04:32.696Z,17.30
2023-02-03T12:08:18.209Z,17.48
2023-02-03T12:11:48.522Z,33.52
2023-02-03T12:15:20.216Z,21.41
2023-02-03T12:18:51.138Z,22.69
2023-02-03T12:22:16.063Z,18.07
2023-02-03T12:25:42.688Z,18.31
2023-02-03T12:29:02.964Z,19.22
2023-02-03T12:32:22.898Z,18.90
2023-02-03T12:35:39.655Z,17.53
2023-02-03T12:38:59.185Z,16.30
2023-02-03T12:42:22.900Z,15.52
2023-02-03T12:45:37.205Z,15.81
2023-02-03T12:48:59.342Z,14.10
2023-02-03T12:52:22.543Z,12.77
2023-02-03T12:55:40.363Z,12.57
2023-02-03T12:58:58.980Z,12.89
2023-02-03T13:02:26.989Z,13.41
2023-02-03T13:05:52.416Z,12.83
2023-02-03T13:09:17.992Z,13.57
2023-02-03T13:12:36.657Z,12.99
2023-02-03T13:15:52.813Z,16.46
2023-02-03T13:19:10.033Z,25.46
2023-02-03T13:22:19.559Z,14.43
2023-02-03T13:25:40.514Z,13.84
2023-02-03T13:29:23.486Z,13.07
2023-02-03T13:33:09.448Z,11.62
2023-02-03T13:36:50.142Z,12.05
2023-02-03T13:40:36.223Z,12.71
2023-02-03T13:43:52.328Z,12.91
2023-02-03T13:47:02.920Z,14.74
2023-02-03T13:50:26.034Z,12.79
2023-02-03T13:53:39.292Z,12.55
2023-02-03T13:56:56.322Z,13.63
2023-02-03T14:00:02.335Z,11.36
2023-02-03T14:03:21.932Z,12.40
2023-02-03T14:07:02.983Z,12.89
2023-02-03T14:10:26.493Z,11.16
2023-02-03T14:13:32.495Z,12.51
2023-02-03T14:16:41.589Z,11.01
2023-02-03T14:19:58.630Z,10.50
2023-02-03T14:23:18.701Z,11.19
2023-02-03T14:26:46.210Z,12.81
2023-02-03T14:30:11.335Z,12.26
2023-02-03T14:33:17.228Z,12.21
2023-02-03T14:36:36.684Z,12.74
2023-02-03T14:40:34.221Z,13.26
2023-02-03T14:44:01.645Z,16.19
2023-02-03T14:47:37.573Z,17.34
2023-02-03T14:51:08.380Z,21.76
2023-02-03T14:54:41.122Z,19.78
2023-02-03T14:58:05.943Z,18.98
2023-02-03T15:01:50.965Z,23.51
2023-02-03T15:05:40.542Z,18.86
2023-02-03T15:08:55.137Z,19.08
2023-02-03T15:12:08.638Z,23.54
2023-02-03T15:15:43.656Z,23.48
2023-02-03T15:18:57.352Z,19.22
2023-02-03T15:22:04.637Z,17.42
2023-02-03T15:25:25.783Z,19.21
2023-02-03T15:28:39.302Z,17.75
2023-02-03T15:31:57.655Z,19.03
2023-02-03T15:35:12.337Z,20.53
2023-02-03T15:38:32.387Z,19.60
2023-02-03T15:41:39.391Z,19.20
2023-02-03T15:44:58.718Z,20.74
2023-02-03T15:48:30.867Z,29.76
2023-02-03T15:51:52.058Z,92.45
2023-02-03T15:55:15.410Z,33.72
2023-02-03T15:58:34.119Z,26.68
2023-02-03T16:01:40.326Z,26.02
2023-02-03T16:04:50.807Z,85.95
2023-02-03T16:07:56.974Z,76.81
2023-02-03T16:11:07.852Z,42.29
2023-02-03T16:14:34.205Z,96.06
2023-02-03T16:17:44.502Z,105.54
2023-02-03T16:20:55.937Z,100.83
2023-02-03T16:24:29.099Z,104.68
2023-02-03T16:27:37.009Z,90.22
2023-02-03T16:31:15.122Z,86.69
2023-02-03T16:34:35.149Z,31.65
2023-02-03T16:38:01.072Z,27.00
2023-02-03T16:41:33.315Z,20.44
2023-02-03T16:44:52.302Z,34.41
2023-02-03T16:48:10.429Z,17.39
2023-02-03T16:51:21.300Z,24.09
2023-02-03T16:54:32.707Z,22.76
2023-02-03T16:57:41.414Z,19.81
2023-02-03T17:00:50.496Z,17.73
2023-02-03T17:03:57.360Z,14.65
2023-02-03T17:07:06.719Z,15.02
2023-02-03T17:10:17.229Z,15.37
2023-02-03T17:13:25.763Z,13.65
2023-02-03T17:16:34.811Z,11.25
2023-02-03T17:19:57.162Z,12.40
2023-02-03T17:23:04.149Z,12.84
2023-02-03T17:26:15.761Z,10.11
2023-02-03T17:29:22.564Z,14.62
2023-02-03T17:32:28.640Z,32.69
2023-02-03T17:35:35.247Z,28.16
2023-02-03T17:55:32.510Z,16.50
2023-02-03T17:58:44.650Z,13.96
2023-02-03T18:01:51.389Z,16.31
2023-02-03T18:04:57.534Z,19.38
2023-02-03T18:08:09.242Z,18.46
2023-02-03T18:11:24.662Z,21.71
2023-02-03T18:14:33.804Z,21.38
2023-02-03T18:17:39.867Z,20.25
2023-02-03T18:20:48.096Z,17.31
2023-02-03T18:23:59.441Z,19.22
2023-02-03T18:27:08.639Z,18.31
2023-02-03T18:30:20.373Z,22.40
2023-02-03T18:33:27.498Z,18.45
2023-02-03T18:36:33.701Z,21.90
2023-02-03T18:39:40.642Z,32.98
2023-02-03T18:42:46.436Z,38.73
2023-02-03T18:45:58.088Z,32.05
2023-02-03T18:49:03.988Z,22.70
2023-02-03T18:52:11.581Z,31.50
2023-02-03T18:55:19.067Z,34.29
2023-02-03T18:58:30.901Z,32.01
2023-02-03T19:01:41.566Z,29.81
2023-02-03T19:04:48.683Z,32.22
2023-02-03T19:07:54.469Z,60.07
2023-02-03T19:11:01.029Z,60.60
2023-02-03T19:14:07.322Z,47.66
2023-02-03T19:17:17.032Z,49.13
2023-02-03T19:20:23.590Z,46.84
2023-02-03T19:23:30.423Z,42.34
2023-02-03T19:26:36.209Z,60.15
2023-02-03T19:29:44.646Z,55.49
2023-02-03T19:32:53.145Z,91.00
2023-02-03T19:36:01.077Z,63.14
2023-02-03T19:39:08.760Z,62.64
2023-02-03T19:42:15.570Z,93.44
2023-02-03T19:45:21.622Z,77.98
2023-02-03T19:48:30.848Z,110.61
2023-02-03T19:51:37.143Z,138.90
2023-02-03T19:54:43.883Z,44.94
2023-02-03T19:57:50.022Z,22.57
2023-02-03T20:00:57.562Z,20.06
2023-02-03T20:04:07.618Z,24.83
2023-02-03T20:07:15.372Z,22.55
2023-02-03T20:10:21.738Z,17.18
2023-02-03T20:13:28.452Z,16.87
2023-02-03T20:16:34.248Z,26.52
2023-02-03T20:19:43.709Z,26.25
2023-02-03T20:22:49.516Z,40.12
2023-02-03T20:25:57.701Z,27.13
2023-02-03T20:29:06.643Z,20.47
2023-02-03T20:32:13.964Z,16.38
2023-02-03T20:35:24.066Z,15.87
2023-02-03T20:38:31.322Z,14.25
2023-02-03T20:41:37.034Z,18.89
2023-02-03T20:44:43.905Z,13.62
2023-02-03T20:47:51.804Z,15.60
2023-02-03T20:51:01.509Z,16.66
2023-02-03T20:54:20.197Z,14.47
2023-02-03T20:57:26.775Z,15.35
2023-02-03T21:00:33.105Z,13.45
2023-02-03T21:03:52.289Z,12.23
2023-02-03T21:07:01.084Z,11.42
2023-02-03T21:10:24.916Z,11.63
2023-02-03T21:13:38.761Z,12.47
2023-02-03T21:16:47.988Z,14.34
2023-02-03T21:19:55.798Z,14.42
2023-02-03T21:23:05.053Z,13.15
2023-02-03T21:26:22.155Z,12.57
2023-02-03T21:29:36.962Z,13.81
2023-02-03T21:32:44.438Z,14.36
2023-02-03T21:35:55.074Z,14.90
2023-02-03T21:39:04.159Z,14.08
2023-02-03T21:42:45.714Z,13.64
2023-02-03T21:45:57.105Z,10.99
2023-02-03T21:49:06.903Z,10.09
2023-02-03T21:52:16.937Z,10.27
2023-02-03T21:55:26.349Z,11.45
2023-02-03T21:58:37.654Z,11.16
2023-02-03T22:01:44.358Z,9.97
2023-02-03T22:04:50.127Z,10.64
2023-02-03T22:07:57.396Z,11.04
2023-02-03T22:11:06.104Z,11.19
2023-02-03T22:14:13.249Z,9.57
2023-02-03T22:17:19.168Z,9.69
2023-02-03T22:20:25.771Z,9.79
2023-02-03T22:23:32.009Z,12.47
2023-02-03T22:26:41.346Z,14.84
2023-02-03T22:29:47.310Z,9.50
2023-02-03T22:32:53.924Z,8.88
2023-02-03T22:35:59.742Z,8.74
2023-02-03T22:39:08.278Z,9.57
2023-02-03T22:42:17.734Z,8.67
2023-02-03T22:45:24.363Z,9.20
2023-02-03T22:48:30.623Z,8.74
2023-02-03T22:51:37.342Z,9.57
2023-02-03T22:54:43.214Z,10.01
2023-02-03T22:57:52.875Z,9.96
2023-02-03T23:00:58.679Z,9.81
2023-02-03T23:04:05.251Z,9.89
2023-02-03T23:07:11.261Z,9.50
2023-02-03T23:10:25.360Z,9.11
2023-02-03T23:13:33.744Z,9.02
2023-02-03T23:16:40.400Z,9.44
2023-02-03T23:19:46.424Z,9.75
2023-02-03T23:22:53.361Z,9.56
2023-02-03T23:26:00.728Z,10.47
2023-02-03T23:29:09.924Z,10.14
2023-02-03T23:32:15.691Z,10.34
2023-02-03T23:35:34.656Z,11.45
2023-02-03T23:38:40.584Z,11.24
2023-02-03T23:41:47.397Z,8.75
2023-02-03T23:44:57.240Z,9.02
2023-02-03T23:48:04.286Z,9.77
2023-02-03T23:51:10.556Z,10.58
2023-02-03T23:54:17.177Z,9.56
2023-02-03T23:57:23.025Z,9.21
